createdAt,value
2022-10-11T00:01:45.077Z,6.43
2022-10-11T00:06:47.397Z,5.72
2022-10-11T00:11:49.148Z,7.00
2022-10-11T00:16:51.106Z,7.10
2022-10-11T00:21:52.730Z,7.28
2022-10-11T00:26:54.371Z,8.00
2022-10-11T00:31:56.479Z,9.53
2022-10-11T00:36:58.196Z,8.45
2022-10-11T00:41:59.937Z,8.02
2022-10-11T00:47:12.275Z,8.00
2022-10-11T00:52:22.973Z,7.03
2022-10-11T00:57:29.674Z,8.70
2022-10-11T01:02:31.647Z,7.15
2022-10-11T01:07:34.270Z,7.65
2022-10-11T01:12:37.138Z,10.32
2022-10-11T01:17:44.890Z,9.45
2022-10-11T01:23:30.903Z,7.50
2022-10-11T01:28:51.355Z,10.35
2022-10-11T01:34:07.183Z,8.57
2022-10-11T01:39:20.781Z,9.00
2022-10-11T01:44:25.622Z,9.48
2022-10-11T01:49:27.269Z,11.02
2022-10-11T01:54:56.567Z,7.50
2022-10-11T02:00:03.815Z,8.23
2022-10-11T02:05:27.600Z,8.27
2022-10-11T02:10:33.030Z,8.48
2022-10-11T02:15:39.333Z,7.80
2022-10-11T02:20:42.809Z,5.40
2022-10-11T02:25:45.889Z,7.85
2022-10-11T02:30:50.734Z,10.52
2022-10-11T02:36:01.079Z,4.80
2022-10-11T02:41:15.755Z,6.05
2022-10-11T02:46:18.084Z,7.65
2022-10-11T02:51:19.794Z,6.13
2022-10-11T02:56:21.582Z,11.35
2022-10-11T03:01:23.375Z,10.75
2022-10-11T03:06:25.118Z,8.48
2022-10-11T03:11:26.833Z,6.07
2022-10-11T03:16:28.538Z,7.35
2022-10-11T03:21:30.266Z,8.43
2022-10-11T03:26:31.951Z,9.02
2022-10-11T03:31:33.670Z,9.65
2022-10-11T03:36:35.402Z,8.05
2022-10-11T03:41:37.114Z,7.35
2022-10-11T03:46:39.209Z,8.27
2022-10-11T03:51:41.027Z,11.32
2022-10-11T03:56:42.844Z,9.18
2022-10-11T04:01:44.656Z,9.77
2022-10-11T04:06:46.393Z,8.32
2022-10-11T04:11:48.304Z,8.23
2022-10-11T04:16:50.060Z,7.30
2022-10-11T04:21:51.946Z,8.10
2022-10-11T04:26:53.739Z,7.18
2022-10-11T04:31:55.472Z,7.80
2022-10-11T04:36:57.197Z,6.53
2022-10-11T04:41:58.904Z,6.47
2022-10-11T04:47:01.238Z,10.77
2022-10-11T04:52:03.218Z,9.18
2022-10-11T04:57:04.890Z,10.88
2022-10-11T05:02:06.662Z,10.00
2022-10-11T05:07:08.506Z,8.35
2022-10-11T05:12:10.580Z,7.20
2022-10-11T05:17:12.339Z,8.43
2022-10-11T05:22:14.118Z,4.03
2022-10-11T05:27:15.807Z,5.35
2022-10-11T05:32:17.677Z,5.63
2022-10-11T05:37:20.308Z,5.00
2022-10-11T05:47:23.779Z,6.22
2022-10-11T05:52:25.727Z,7.97
2022-10-11T05:57:27.412Z,9.48
2022-10-11T06:02:29.098Z,6.20
2022-10-11T06:07:30.974Z,6.63
2022-10-11T06:12:33.420Z,7.35
2022-10-11T06:17:35.265Z,7.30
2022-10-11T06:22:36.983Z,7.45
2022-10-11T06:27:38.723Z,10.50
2022-10-11T06:32:40.486Z,9.65
2022-10-11T06:37:42.278Z,9.23
2022-10-11T06:42:48.750Z,9.02
2022-10-11T06:47:50.515Z,9.20
2022-10-11T06:52:52.219Z,8.88
2022-10-11T06:57:53.948Z,8.20
2022-10-11T07:02:55.673Z,9.45
2022-10-11T07:07:57.374Z,11.18
2022-10-11T07:12:59.084Z,11.50
2022-10-11T07:18:00.852Z,12.00
2022-10-11T07:23:02.664Z,11.00
2022-10-11T07:28:04.785Z,11.85
2022-10-11T07:33:06.625Z,12.75
2022-10-11T07:38:08.478Z,16.05
2022-10-11T07:43:12.015Z,19.42
2022-10-11T07:48:14.135Z,19.60
2022-10-11T07:53:16.015Z,20.55
2022-10-11T07:58:17.728Z,22.40
2022-10-11T08:03:19.485Z,18.77
2022-10-11T08:08:21.208Z,20.52
2022-10-11T08:13:23.698Z,16.98
2022-10-11T08:18:25.487Z,16.47
2022-10-11T08:23:27.122Z,16.23
2022-10-11T08:28:28.872Z,15.82
2022-10-11T08:33:31.195Z,16.33
2022-10-11T08:38:33.503Z,14.80
2022-10-11T08:43:44.661Z,15.10
2022-10-11T08:48:49.353Z,14.15
2022-10-11T08:54:28.774Z,13.90
2022-10-11T08:59:39.407Z,15.20
2022-10-11T09:04:41.353Z,17.17
2022-10-11T09:10:24.676Z,13.30
2022-10-11T09:15:48.557Z,12.40
2022-10-11T09:20:59.422Z,11.15
2022-10-11T09:26:01.245Z,11.50
2022-10-11T09:31:03.089Z,11.20
2022-10-11T09:36:24.647Z,12.07
2022-10-11T09:41:46.834Z,11.93
2022-10-11T09:46:50.954Z,13.87
2022-10-11T09:51:58.705Z,15.15
2022-10-11T09:57:00.547Z,14.70
2022-10-11T10:02:14.537Z,15.77
2022-10-11T10:07:16.322Z,16.45
2022-10-11T10:12:28.547Z,15.23
2022-10-11T10:17:30.771Z,14.82
2022-10-11T10:22:35.172Z,13.85
2022-10-11T10:27:37.017Z,14.07
2022-10-11T10:33:04.467Z,12.43
2022-10-11T10:38:26.228Z,11.93
2022-10-11T10:43:37.579Z,11.60
2022-10-11T10:54:36.662Z,10.00
2022-10-11T10:59:43.251Z,10.70
2022-10-11T11:04:54.432Z,9.27
2022-10-11T11:10:15.469Z,8.90
2022-10-11T11:15:46.622Z,9.38
2022-10-11T11:21:19.457Z,9.32
2022-10-11T11:26:45.294Z,8.93
2022-10-11T11:32:13.348Z,9.43
2022-10-11T11:37:23.133Z,9.00
2022-10-11T11:42:54.161Z,9.18
2022-10-11T11:48:06.725Z,8.85
2022-10-11T11:53:16.470Z,8.05
2022-10-11T11:58:50.573Z,7.47
2022-10-11T12:03:55.978Z,7.38
2022-10-11T12:09:22.348Z,7.35
2022-10-11T12:14:31.940Z,8.07
2022-10-11T12:19:34.677Z,7.25
2022-10-11T12:24:59.849Z,7.25
2022-10-11T12:30:01.688Z,6.85
2022-10-11T12:35:31.728Z,7.78
2022-10-11T12:40:42.508Z,7.70
2022-10-11T12:45:47.979Z,7.05
2022-10-11T12:51:20.746Z,6.53
2022-10-11T12:56:25.810Z,6.47
2022-10-11T13:01:34.829Z,7.82
2022-10-11T13:06:46.225Z,5.72
2022-10-11T13:11:52.398Z,5.85
2022-10-11T13:17:07.106Z,6.22
2022-10-11T13:22:21.294Z,6.20
2022-10-11T13:27:27.773Z,5.65
2022-10-11T13:32:31.572Z,5.40
2022-10-11T13:37:51.743Z,4.38
2022-10-11T13:42:55.071Z,5.78
2022-10-11T13:47:57.438Z,6.13
2022-10-11T13:53:09.631Z,6.82
2022-10-11T13:58:18.971Z,8.87
2022-10-11T14:03:24.654Z,9.55
2022-10-11T14:08:44.589Z,8.27
2022-10-11T14:13:49.765Z,7.07
2022-10-11T14:19:08.046Z,6.82
2022-10-11T14:24:12.567Z,6.60
2022-10-11T14:29:26.218Z,6.63
2022-10-11T14:34:28.852Z,7.53
2022-10-11T14:39:32.514Z,7.13
2022-10-11T14:44:35.534Z,7.15
2022-10-11T14:49:37.709Z,8.10
2022-10-11T14:54:41.050Z,8.20
2022-10-11T14:59:43.984Z,7.35
2022-10-11T15:04:45.838Z,7.80
2022-10-11T15:09:47.462Z,7.57
2022-10-11T15:14:49.204Z,8.38
2022-10-11T15:19:50.978Z,8.80
2022-10-11T15:24:52.650Z,9.05
2022-10-11T15:29:54.417Z,8.63
2022-10-11T15:34:56.220Z,8.57
2022-10-11T15:39:57.876Z,9.23
2022-10-11T15:44:59.630Z,9.68
2022-10-11T15:50:01.307Z,8.88
2022-10-11T15:55:03.038Z,17.52
2022-10-11T16:00:05.170Z,15.27
2022-10-11T16:05:13.501Z,21.15
2022-10-11T16:10:15.375Z,12.02
2022-10-11T16:15:17.358Z,14.77
2022-10-11T16:20:22.348Z,12.17
2022-10-11T16:25:24.560Z,10.30
2022-10-11T16:30:27.465Z,9.05
2022-10-11T16:35:32.556Z,9.50
2022-10-11T16:40:37.627Z,9.50
2022-10-11T16:45:39.490Z,8.20
2022-10-11T16:50:41.342Z,9.67
2022-10-11T16:55:42.951Z,9.57
2022-10-11T17:00:44.728Z,10.88
2022-10-11T17:05:46.605Z,11.20
2022-10-11T17:10:53.515Z,11.05
2022-10-11T17:15:55.215Z,10.40
2022-10-11T17:21:06.100Z,12.82
2022-10-11T17:26:11.569Z,8.68
2022-10-11T17:31:13.523Z,8.55
2022-10-11T17:36:36.337Z,8.38
2022-10-11T17:41:38.482Z,9.15
2022-10-11T17:46:40.150Z,8.40
2022-10-11T17:51:42.513Z,7.82
2022-10-11T17:56:44.207Z,7.63
2022-10-11T18:01:46.016Z,8.18
2022-10-11T18:06:49.484Z,9.18
2022-10-11T18:11:51.608Z,8.25
2022-10-11T18:16:53.336Z,7.77
2022-10-11T18:21:55.393Z,8.90
2022-10-11T18:26:57.103Z,8.13
2022-10-11T18:31:58.830Z,11.63
2022-10-11T18:37:00.635Z,9.25
2022-10-11T18:42:04.564Z,8.05
2022-10-11T18:47:06.339Z,7.57
2022-10-11T18:52:08.450Z,8.50
2022-10-11T18:57:10.152Z,9.33
2022-10-11T19:02:12.604Z,8.45
2022-10-11T19:07:14.324Z,8.60
2022-10-11T19:12:16.599Z,9.13
2022-10-11T19:17:22.504Z,10.25
2022-10-11T19:22:24.240Z,12.10
2022-10-11T19:27:26.055Z,10.70
2022-10-11T19:32:27.939Z,9.32
2022-10-11T19:37:30.170Z,9.27
2022-10-11T19:42:32.304Z,9.00
2022-10-11T19:47:34.245Z,9.53
2022-10-11T19:52:36.180Z,11.68
2022-10-11T19:57:37.887Z,9.20
2022-10-11T20:02:39.776Z,8.88
2022-10-11T20:07:41.494Z,9.63
2022-10-11T20:12:45.933Z,9.52
2022-10-11T20:17:48.228Z,8.95
2022-10-11T20:22:50.043Z,9.93
2022-10-11T20:27:51.858Z,8.65
2022-10-11T20:32:53.563Z,10.65
2022-10-11T20:37:55.257Z,7.88
2022-10-11T20:42:57.028Z,10.32
2022-10-11T20:47:58.842Z,11.30
2022-10-11T20:53:00.485Z,12.70
2022-10-11T20:58:02.065Z,9.93
2022-10-11T21:03:03.818Z,12.40
2022-10-11T21:08:05.793Z,11.20
2022-10-11T21:13:07.536Z,11.70
2022-10-11T21:18:09.289Z,10.63
2022-10-11T21:23:13.407Z,10.70
2022-10-11T21:28:15.249Z,11.60
2022-10-11T21:33:17.027Z,9.30
2022-10-11T21:38:18.731Z,10.55
2022-10-11T21:43:20.537Z,11.75
2022-10-11T21:48:22.229Z,12.25
2022-10-11T21:53:23.887Z,11.57
2022-10-11T21:58:25.815Z,14.85
2022-10-11T22:03:27.541Z,12.60
2022-10-11T22:08:30.324Z,16.00
2022-10-11T22:13:33.712Z,15.98
2022-10-11T22:18:36.347Z,14.40
2022-10-11T22:23:38.070Z,15.10
2022-10-11T22:28:40.757Z,21.20
2022-10-11T22:33:42.830Z,23.10
2022-10-11T22:38:45.510Z,22.03
2022-10-11T22:43:47.206Z,20.98
2022-10-11T22:48:48.979Z,22.75
2022-10-11T22:53:50.869Z,20.20
2022-10-11T22:58:52.534Z,25.35
2022-10-11T23:03:54.416Z,22.88
2022-10-11T23:08:56.149Z,23.57
2022-10-11T23:13:57.872Z,25.30
2022-10-11T23:18:59.645Z,25.08
2022-10-11T23:24:01.423Z,23.63
2022-10-11T23:29:03.297Z,26.45
2022-10-11T23:34:05.002Z,25.67
2022-10-11T23:39:06.680Z,27.50
2022-10-11T23:44:08.467Z,27.30
2022-10-11T23:49:10.163Z,25.77
2022-10-11T23:54:11.947Z,29.02
2022-10-11T23:59:13.678Z,24.70
